Time;durP1;ratioP1;P1;durP2;ratioP2;P2;SDS_P1;SDS_P2;PMS_P1;PMS_P2;Temp;Humidity;BMP_temperature;BMP_pressure;BME280_temperature;BME280_humidity;BME280_pressure;Samples;Min_cycle;Max_cycle;Signal;HPM_P1;HPM_P2
2023/03/06 17:13:43;;;;;;;367.17;275.73;;;;;;;19.43;42.43;100676.88;4957327;27;3734853;-43
2023/03/06 17:16:14;;;;;;;347.30;265.00;;;;;;;20.45;40.08;100679.47;5085385;28;20055;-40
2023/03/06 17:18:43;;;;;;;335.30;253.43;;;;;;;21.22;38.43;100674.16;5085507;28;20081;-44
2023/03/06 17:21:10;;;;;;;326.17;246.63;;;;;;;21.81;37.23;100676.16;5083503;28;20421;-42
2023/03/06 17:23:38;;;;;;;349.27;242.38;;;;;;;22.24;36.57;100675.16;5089006;28;20021;-50
2023/03/06 17:26:10;;;;;;;327.30;242.98;;;;;;;22.40;36.10;100671.00;5089301;28;20124;-42
2023/03/06 17:28:38;;;;;;;320.27;241.60;;;;;;;22.49;36.00;100675.53;5052911;28;20069;-55
2023/03/06 17:31:18;;;;;;;304.45;227.48;;;;;;;22.65;35.73;100671.41;5045078;28;20025;-46
2023/03/06 17:33:46;;;;;;;316.73;230.52;;;;;;;22.76;35.39;100680.28;5048102;28;20065;-52
2023/03/06 17:36:14;;;;;;;300.02;224.90;;;;;;;22.82;35.17;100676.88;5047114;28;20036;-56
2023/03/06 17:38:41;;;;;;;304.90;228.48;;;;;;;22.92;34.95;100677.00;5045049;28;20052;-53
2023/03/06 17:41:09;;;;;;;279.52;208.48;;;;;;;23.01;34.56;100672.72;5047761;28;20017;-55
2023/03/06 17:43:38;;;;;;;280.92;205.95;;;;;;;23.08;34.74;100668.47;5040606;28;20426;-52
2023/03/06 17:46:07;;;;;;;259.48;196.88;;;;;;;23.09;34.80;100676.34;5048138;28;20086;-51
2023/03/06 17:48:35;;;;;;;261.60;195.82;;;;;;;23.21;34.07;100667.78;5044274;28;20386;-55
2023/03/06 17:51:02;;;;;;;280.48;205.48;;;;;;;23.25;34.32;100666.09;5045817;28;20033;-53
2023/03/06 17:53:30;;;;;;;274.40;200.57;;;;;;;23.27;34.41;100672.22;5047307;28;20029;-53
2023/03/06 17:55:58;;;;;;;284.10;208.85;;;;;;;23.28;34.55;100667.00;5046701;28;20037;-56
2023/03/06 17:58:26;;;;;;;274.17;198.95;;;;;;;23.39;33.96;100661.00;5046642;28;20030;-52
2023/03/06 18:00:53;;;;;;;271.92;195.32;;;;;;;23.38;34.01;100673.22;5045404;28;20063;-56
2023/03/06 18:03:21;;;;;;;281.77;203.65;;;;;;;23.39;34.18;100672.34;5043740;28;20033;-58
2023/03/06 18:05:59;;;;;;;278.95;206.77;;;;;;;23.40;34.13;100668.88;5047756;28;20116;-65
2023/03/06 18:08:27;;;;;;;283.90;206.15;;;;;;;23.45;34.52;100668.91;5043714;28;20445;-53
2023/03/06 18:11:04;;;;;;;290.00;212.55;;;;;;;23.49;34.58;100674.22;5048699;28;20068;-58
2023/03/06 18:13:33;;;;;;;279.40;202.38;;;;;;;23.55;33.95;100667.28;5028532;28;20385;-59
2023/03/06 18:16:01;;;;;;;283.30;206.10;;;;;;;23.60;34.15;100668.19;5029163;28;20104;-54
2023/03/06 18:18:29;;;;;;;278.50;200.35;;;;;;;23.62;33.92;100667.34;5043016;28;20554;-58
2023/03/06 18:20:56;;;;;;;274.40;195.30;;;;;;;23.64;34.08;100672.63;5048393;28;20029;-60
2023/03/06 18:23:25;;;;;;;271.52;196.18;;;;;;;23.70;33.79;100671.78;5024258;28;20034;-60
2023/03/06 18:25:52;;;;;;;256.88;189.70;;;;;;;23.74;33.83;100670.97;5015667;28;20049;-55
2023/03/06 18:28:20;;;;;;;264.25;187.02;;;;;;;23.75;33.59;100665.72;5015303;28;20032;-56
2023/03/06 18:30:47;;;;;;;256.67;189.43;;;;;;;23.83;33.57;100666.66;5015066;28;20037;-56
2023/03/06 18:33:15;;;;;;;273.75;194.80;;;;;;;23.89;33.82;100662.34;5014853;28;20491;-56
2023/03/06 18:35:42;;;;;;;262.10;189.50;;;;;;;23.93;33.72;100664.13;5015448;28;20072;-60
2023/03/06 18:38:10;;;;;;;265.90;192.30;;;;;;;23.93;33.52;100659.75;5025759;28;20029;-51
2023/03/06 18:40:37;;;;;;;254.02;186.13;;;;;;;24.01;33.74;100654.63;5034819;28;20064;-59
2023/03/06 18:43:04;;;;;;;255.00;185.35;;;;;;;24.09;33.57;100654.66;5016680;28;20206;-60
2023/03/06 18:45:32;;;;;;;264.50;185.23;;;;;;;24.15;33.63;100659.09;5015566;28;20464;-58
2023/03/06 18:47:59;;;;;;;257.20;185.50;;;;;;;24.16;33.38;100656.47;5014447;28;20034;-60
2023/03/06 18:50:28;;;;;;;264.20;184.45;;;;;;;24.18;33.17;100653.88;5014940;28;20504;-60
2023/03/06 18:52:56;;;;;;;246.40;177.68;;;;;;;24.28;33.20;100663.56;5014429;28;20030;-59
2023/03/06 18:55:23;;;;;;;251.60;180.48;;;;;;;24.31;33.41;100657.47;5015064;28;20022;-59
2023/03/06 18:57:51;;;;;;;253.43;177.93;;;;;;;24.32;33.61;100657.47;5015054;28;20026;-58
2023/03/06 19:00:19;;;;;;;260.98;183.68;;;;;;;24.34;33.21;100658.34;5014599;28;20403;-59
2023/03/06 19:02:47;;;;;;;260.15;181.90;;;;;;;24.35;33.64;100656.63;5014250;28;20030;-60
2023/03/06 19:05:16;;;;;;;256.42;177.27;;;;;;;24.39;33.49;100653.16;5014664;28;20041;-51
2023/03/06 19:07:43;;;;;;;254.73;181.00;;;;;;;24.42;33.47;100653.16;5013461;28;20052;-56
2023/03/06 19:10:11;;;;;;;253.63;182.50;;;;;;;24.42;33.37;100651.41;5013778;28;20032;-58
2023/03/06 19:12:38;;;;;;;251.23;179.13;;;;;;;24.43;33.29;100645.31;5013613;28;20054;-54
2023/03/06 19:15:06;;;;;;;255.00;181.75;;;;;;;24.48;33.55;100644.47;5014767;28;20022;-58
2023/03/06 19:17:33;;;;;;;251.35;179.63;;;;;;;24.45;33.53;100647.94;5014529;28;20029;-56
2023/03/06 19:20:01;;;;;;;252.10;177.10;;;;;;;24.50;33.44;100640.09;5014771;28;20468;-59
2023/03/06 19:22:29;;;;;;;247.07;176.57;;;;;;;24.58;33.05;100639.25;5013047;28;20116;-59
2023/03/06 19:24:57;;;;;;;257.58;178.10;;;;;;;24.50;33.36;100653.19;5014758;28;20044;-59
2023/03/06 19:27:24;;;;;;;247.77;175.20;;;;;;;24.48;33.18;100632.22;5016915;28;20026;-60
2023/03/06 19:29:53;;;;;;;258.30;180.25;;;;;;;24.59;33.16;100637.53;5033886;28;20120;-59
2023/03/06 19:32:21;;;;;;;243.75;172.77;;;;;;;24.61;33.14;100643.66;5034351;28;20030;-60
2023/03/06 19:34:50;;;;;;;245.80;170.15;;;;;;;24.63;33.00;100647.19;5032182;28;20522;-58
2023/03/06 19:37:17;;;;;;;234.57;169.45;;;;;;;24.70;33.14;100642.88;5028041;28;20038;-57
2023/03/06 19:39:44;;;;;;;246.85;170.50;;;;;;;24.72;33.01;100638.50;5033802;28;20029;-58
2023/03/06 19:42:11;;;;;;;251.68;172.18;;;;;;;24.68;33.16;100639.31;5033718;28;20370;-54
2023/03/06 19:44:38;;;;;;;243.38;172.50;;;;;;;24.68;33.06;100634.94;5033635;28;20168;-51
2023/03/06 19:47:06;;;;;;;244.75;172.77;;;;;;;24.70;33.22;100642.88;5031504;28;20025;-54
2023/03/06 19:49:33;;;;;;;253.23;178.40;;;;;;;24.66;32.97;100636.66;5021614;28;20021;-57
2023/03/06 19:52:01;;;;;;;249.30;178.63;;;;;;;24.72;33.03;100641.13;5033201;28;20033;-53
2023/03/06 19:54:28;;;;;;;250.80;176.60;;;;;;;24.72;33.20;100641.13;5033304;28;20376;-51
2023/03/06 19:56:55;;;;;;;257.70;177.43;;;;;;;24.79;33.29;100644.66;5032776;28;20108;-55
2023/03/06 19:59:23;;;;;;;255.05;178.98;;;;;;;24.78;33.40;100637.66;5031558;28;20032;-52
2023/03/06 20:01:50;;;;;;;246.55;179.27;;;;;;;24.78;32.98;100640.28;5033057;28;20033;-59
2023/03/06 20:04:17;;;;;;;265.65;176.63;;;;;;;24.76;33.05;100621.03;5032681;28;20471;-59
2023/03/06 20:06:46;;;;;;;253.77;177.73;;;;;;;24.80;32.97;100631.53;5033149;28;20030;-56
2023/03/06 20:09:14;;;;;;;266.05;185.05;;;;;;;24.82;33.18;100628.94;5030744;28;20029;-58
2023/03/06 20:11:41;;;;;;;254.18;178.70;;;;;;;24.80;33.28;100625.44;5032817;28;20037;-53
2023/03/06 20:14:10;;;;;;;256.88;178.27;;;;;;;24.82;33.05;100628.94;5033122;28;20029;-56
2023/03/06 20:16:38;;;;;;;249.45;177.48;;;;;;;24.84;33.34;100637.66;5032938;28;20040;-57
2023/03/06 20:19:07;;;;;;;254.13;180.73;;;;;;;24.88;33.06;100636.81;5031081;28;20037;-56
2023/03/06 20:21:36;;;;;;;256.08;176.32;;;;;;;24.93;32.72;100639.44;5032823;28;20025;-59
2023/03/06 20:24:05;;;;;;;258.50;177.88;;;;;;;24.95;33.09;100637.72;5031626;28;20021;-56
2023/03/06 20:26:33;;;;;;;247.10;172.25;;;;;;;24.99;32.77;100640.34;5026156;28;20044;-56
2023/03/06 20:29:02;;;;;;;237.68;166.90;;;;;;;25.03;32.88;100629.00;5029470;28;20049;-55
2023/03/06 20:31:30;;;;;;;242.15;166.50;;;;;;;25.06;32.73;100630.78;5031718;28;20029;-54
2023/03/06 20:33:58;;;;;;;249.55;180.13;;;;;;;25.07;32.83;100621.13;5031714;28;20028;-58
2023/03/06 20:36:29;;;;;;;241.48;169.63;;;;;;;25.03;33.08;100618.50;5026145;28;20437;-57
2023/03/06 20:39:00;;;;;;;257.65;177.35;;;;;;;25.06;32.99;100615.03;5032634;28;20032;-58
2023/03/06 20:41:29;;;;;;;255.77;173.55;;;;;;;25.11;32.79;100612.41;5028206;28;20156;-55
2023/03/06 20:43:58;;;;;;;236.25;164.32;;;;;;;25.16;32.66;100602.78;5032331;28;20033;-55
